Terminal Aerodrome Forecast
Issued by NWS

Home | Current Version | Previous Version | Text Only | Print | Product List | Glossary On
Versions: 1 2 3 4 5 6 7 8 9 10 11 12 13 14 15 16 17 18
828
FTUS43 KDLH 151041 AAA
TAFBRD
TAF AMD
KBRD 151041Z 1511/1606 32008KT P6SM BKN010
     FM151200 32006KT P6SM SCT010
     FM151600 29007KT P6SM FEW250
     FM152100 25005KT P6SM VCSH SCT030 BKN100
     FM160000 25005KT P6SM BKN100=

USA.gov is the U.S. government's official web portal to all federal, state and local government web resources and services.